createdAt,value
2018-07-23T00:00:20.189Z,818.01
2018-07-23T00:01:20.210Z,817.96
2018-07-23T00:02:20.226Z,817.99
2018-07-23T00:03:20.247Z,817.96
2018-07-23T00:04:20.263Z,817.98
2018-07-23T00:05:20.280Z,817.97
2018-07-23T00:06:20.302Z,817.99
2018-07-23T00:07:20.318Z,817.97
2018-07-23T00:08:20.338Z,817.95
2018-07-23T00:09:20.356Z,817.96
2018-07-23T00:10:20.373Z,817.97
2018-07-23T00:11:20.392Z,817.95
2018-07-23T00:12:20.412Z,817.97
2018-07-23T00:13:20.437Z,817.96
2018-07-23T00:14:20.445Z,817.98
2018-07-23T00:15:20.464Z,817.91
2018-07-23T00:16:20.482Z,817.94
2018-07-23T00:17:20.500Z,817.95
2018-07-23T00:18:20.521Z,817.95
2018-07-23T00:19:20.537Z,817.98
2018-07-23T00:20:20.559Z,817.96
2018-07-23T00:21:20.574Z,817.97
2018-07-23T00:22:20.592Z,818.01
2018-07-23T00:23:20.612Z,817.97
2018-07-23T00:24:20.629Z,817.97
2018-07-23T00:25:20.648Z,817.92
2018-07-23T00:26:20.664Z,817.91
2018-07-23T00:27:20.684Z,817.93
2018-07-23T00:28:20.702Z,817.93
2018-07-23T00:29:20.722Z,817.93
2018-07-23T00:30:20.739Z,817.90
2018-07-23T00:31:20.754Z,817.95
2018-07-23T00:32:20.774Z,817.91
2018-07-23T00:33:20.792Z,817.92
2018-07-23T00:34:20.809Z,817.90
2018-07-23T00:35:20.827Z,817.93
2018-07-23T00:36:20.847Z,817.93
2018-07-23T00:37:20.861Z,817.96
2018-07-23T00:38:20.884Z,817.94
2018-07-23T00:39:20.899Z,817.91
2018-07-23T00:40:20.916Z,817.93
2018-07-23T00:41:20.935Z,817.88
2018-07-23T00:42:20.953Z,817.87
2018-07-23T00:43:20.976Z,817.83
2018-07-23T00:44:20.988Z,817.85
2018-07-23T00:45:21.007Z,817.86
2018-07-23T00:46:21.024Z,817.85
2018-07-23T00:47:21.044Z,817.83
2018-07-23T00:48:21.063Z,817.84
2018-07-23T00:49:21.079Z,817.82
2018-07-23T00:50:21.098Z,817.84
2018-07-23T00:51:21.119Z,817.86
2018-07-23T00:52:21.135Z,817.87
2018-07-23T00:53:21.150Z,817.84
2018-07-23T00:54:21.167Z,817.85
2018-07-23T00:55:21.187Z,817.84
2018-07-23T00:56:21.206Z,817.80
2018-07-23T00:57:21.224Z,817.82
2018-07-23T00:58:21.239Z,817.77
2018-07-23T00:59:21.259Z,817.77
2018-07-23T01:00:21.280Z,817.76
2018-07-23T01:01:21.295Z,817.74
2018-07-23T01:02:21.313Z,817.72
2018-07-23T01:03:21.332Z,817.72
2018-07-23T01:04:21.350Z,817.74
2018-07-23T01:05:21.367Z,817.76
2018-07-23T01:06:21.386Z,817.75
2018-07-23T01:07:21.405Z,817.77
2018-07-23T01:08:21.424Z,817.75
2018-07-23T01:09:21.441Z,817.76
2018-07-23T01:10:21.464Z,817.74
2018-07-23T01:11:21.480Z,817.77
2018-07-23T01:12:21.494Z,817.79
2018-07-23T01:13:21.514Z,817.81
2018-07-23T01:14:21.530Z,817.80
2018-07-23T01:15:21.548Z,817.79
2018-07-23T01:16:21.565Z,817.78
2018-07-23T01:17:21.612Z,817.81
2018-07-23T01:18:21.606Z,817.83
2018-07-23T01:19:21.621Z,817.83
2018-07-23T01:20:21.640Z,817.83
2018-07-23T01:21:21.656Z,817.84
2018-07-23T01:22:21.680Z,817.81
2018-07-23T01:23:21.693Z,817.81
2018-07-23T01:24:21.714Z,817.85
2018-07-23T01:25:21.730Z,817.85
2018-07-23T01:26:21.748Z,817.81
2018-07-23T01:27:21.765Z,817.83
2018-07-23T01:28:21.783Z,817.85
2018-07-23T01:29:21.803Z,817.83
2018-07-23T01:30:21.820Z,817.84
2018-07-23T01:31:21.841Z,817.83
2018-07-23T01:32:21.856Z,817.83
2018-07-23T01:33:21.874Z,817.83
2018-07-23T01:34:21.891Z,817.80
2018-07-23T01:35:21.911Z,817.80
2018-07-23T01:36:21.929Z,817.85
2018-07-23T01:37:21.952Z,817.82
2018-07-23T01:38:21.967Z,817.82
2018-07-23T01:39:21.984Z,817.83
2018-07-23T01:40:22.000Z,817.81
2018-07-23T01:41:22.020Z,817.82
2018-07-23T01:42:22.036Z,817.79
2018-07-23T01:43:22.055Z,817.80
2018-07-23T01:44:22.073Z,817.84
2018-07-23T01:45:22.092Z,817.80
2018-07-23T01:46:22.108Z,817.81
2018-07-23T01:47:22.128Z,817.81
2018-07-23T01:48:22.146Z,817.86
2018-07-23T01:49:22.163Z,817.84
2018-07-23T01:50:22.180Z,817.86
2018-07-23T01:51:22.201Z,817.83
2018-07-23T01:52:22.220Z,817.81
2018-07-23T01:53:22.234Z,817.80
2018-07-23T01:54:22.252Z,817.84
2018-07-23T01:55:22.269Z,817.84
2018-07-23T01:56:22.285Z,817.85
2018-07-23T01:57:22.302Z,817.86
2018-07-23T01:58:22.322Z,817.85
2018-07-23T01:59:22.340Z,817.83
2018-07-23T02:00:22.359Z,817.83
2018-07-23T02:01:22.376Z,817.85
2018-07-23T02:02:22.394Z,817.83
2018-07-23T02:03:22.410Z,817.89
2018-07-23T02:04:22.430Z,817.86
2018-07-23T02:05:22.446Z,817.87
2018-07-23T02:06:22.465Z,817.88
2018-07-23T02:07:22.483Z,817.89
2018-07-23T02:08:22.500Z,817.90
2018-07-23T02:09:22.516Z,817.90
2018-07-23T02:10:22.536Z,817.89
2018-07-23T02:11:22.553Z,817.90
2018-07-23T02:12:22.570Z,817.89
2018-07-23T02:13:22.589Z,817.89
2018-07-23T02:14:22.606Z,817.98
2018-07-23T02:15:22.623Z,817.93
2018-07-23T02:16:22.641Z,817.91
2018-07-23T02:17:22.658Z,817.93
2018-07-23T02:18:22.679Z,817.94
2018-07-23T02:19:22.694Z,817.92
2018-07-23T02:20:22.713Z,817.91
2018-07-23T02:21:22.730Z,817.90
2018-07-23T02:22:22.747Z,817.90
2018-07-23T02:23:22.768Z,817.91
2018-07-23T02:24:22.788Z,817.88
2018-07-23T02:25:22.803Z,817.90
2018-07-23T02:26:22.824Z,817.93
2018-07-23T02:27:22.838Z,817.95
2018-07-23T02:28:22.855Z,817.90
2018-07-23T02:29:22.875Z,817.92
2018-07-23T02:30:22.891Z,817.94
2018-07-23T02:31:22.915Z,817.93
2018-07-23T02:32:22.931Z,817.94
2018-07-23T02:33:22.946Z,817.92
2018-07-23T02:34:22.964Z,817.91
2018-07-23T02:35:23.040Z,817.87
2018-07-23T02:36:23.000Z,817.88
2018-07-23T02:37:23.114Z,817.83
2018-07-23T02:38:23.034Z,817.84
2018-07-23T02:39:23.057Z,817.81
2018-07-23T02:40:23.072Z,817.80
2018-07-23T02:41:23.090Z,817.79
2018-07-23T02:42:23.107Z,817.80
2018-07-23T02:43:23.126Z,817.82
2018-07-23T02:44:23.146Z,817.78
2018-07-23T02:45:23.195Z,817.81
2018-07-23T02:46:23.176Z,817.80
2018-07-23T02:47:23.195Z,817.82
2018-07-23T02:48:23.215Z,817.80
2018-07-23T02:49:23.235Z,817.83
2018-07-23T02:50:23.249Z,817.82
2018-07-23T02:51:23.268Z,817.81
2018-07-23T02:52:23.284Z,817.81
2018-07-23T02:53:23.303Z,817.85
2018-07-23T02:54:23.321Z,817.83
2018-07-23T02:55:23.337Z,817.80
2018-07-23T02:56:23.356Z,817.81
2018-07-23T02:57:23.372Z,817.82
2018-07-23T02:58:23.390Z,817.82
2018-07-23T02:59:23.410Z,817.83
2018-07-23T03:00:23.430Z,817.82
2018-07-23T03:01:23.445Z,817.85
2018-07-23T03:02:23.461Z,817.84
2018-07-23T03:03:23.482Z,817.79
2018-07-23T03:04:23.497Z,817.83
2018-07-23T03:05:23.515Z,817.86
2018-07-23T03:06:23.532Z,817.85
2018-07-23T03:07:23.549Z,817.85
2018-07-23T03:08:23.568Z,817.84
2018-07-23T03:09:23.588Z,817.87
2018-07-23T03:10:23.602Z,817.89
2018-07-23T03:11:23.623Z,817.91
2018-07-23T03:12:23.637Z,817.88
2018-07-23T03:13:23.655Z,817.92
2018-07-23T03:14:23.676Z,817.87
2018-07-23T03:15:23.691Z,817.84
2018-07-23T03:16:23.708Z,817.87
2018-07-23T03:17:23.727Z,817.87
2018-07-23T03:18:23.744Z,817.84
2018-07-23T03:19:23.761Z,817.83
2018-07-23T03:20:23.780Z,817.85
2018-07-23T03:21:23.803Z,817.85
2018-07-23T03:22:23.815Z,817.86
2018-07-23T03:23:23.834Z,817.87
2018-07-23T03:24:23.855Z,817.86
2018-07-23T03:25:23.868Z,817.89
2018-07-23T03:26:23.886Z,817.88
2018-07-23T03:27:23.903Z,817.88
2018-07-23T03:28:23.921Z,817.86
2018-07-23T03:29:23.942Z,817.85
2018-07-23T03:30:23.955Z,817.87
2018-07-23T03:31:23.977Z,817.83
2018-07-23T03:32:23.993Z,817.87
2018-07-23T03:33:24.010Z,817.89
2018-07-23T03:34:24.028Z,817.91
2018-07-23T03:35:24.047Z,817.87
2018-07-23T03:36:24.063Z,817.91
2018-07-23T03:37:24.080Z,817.93
2018-07-23T03:38:24.100Z,817.90
2018-07-23T03:39:24.118Z,817.92
2018-07-23T03:40:24.136Z,817.91
2018-07-23T03:41:24.151Z,817.92
2018-07-23T03:42:24.170Z,817.93
2018-07-23T03:43:24.186Z,817.89
2018-07-23T03:44:24.203Z,817.91
2018-07-23T03:45:24.220Z,817.98
2018-07-23T03:46:24.239Z,817.96
2018-07-23T03:47:24.257Z,817.99
2018-07-23T03:48:24.273Z,817.99
2018-07-23T03:49:24.294Z,818.01
2018-07-23T03:50:24.311Z,818.02
2018-07-23T03:51:24.329Z,818.01
2018-07-23T03:52:24.344Z,818.01
2018-07-23T03:53:24.360Z,818.05
2018-07-23T03:54:24.380Z,818.05
2018-07-23T03:55:24.399Z,818.08
2018-07-23T03:56:24.417Z,818.12
2018-07-23T03:57:24.434Z,818.14
2018-07-23T03:58:24.452Z,818.15
2018-07-23T03:59:24.464Z,818.16
2018-07-23T04:00:24.484Z,818.21
2018-07-23T04:01:24.502Z,818.19
2018-07-23T04:02:24.520Z,818.17
2018-07-23T04:03:24.590Z,818.18
2018-07-23T04:04:24.554Z,818.19
2018-07-23T04:05:24.570Z,818.18
2018-07-23T04:06:24.590Z,818.17
2018-07-23T04:07:24.605Z,818.14
2018-07-23T04:08:24.631Z,818.13
2018-07-23T04:09:24.644Z,818.16
2018-07-23T04:10:24.658Z,818.14
2018-07-23T04:11:24.675Z,818.15
2018-07-23T04:12:24.694Z,818.13
2018-07-23T04:13:24.710Z,818.16
2018-07-23T04:14:24.728Z,818.16
2018-07-23T04:15:24.746Z,818.15
2018-07-23T04:16:24.766Z,818.17
2018-07-23T04:17:24.839Z,818.20
2018-07-23T04:18:24.799Z,818.17
2018-07-23T04:19:24.814Z,818.18
2018-07-23T04:20:24.834Z,818.14
2018-07-23T04:21:24.851Z,818.13
2018-07-23T04:22:24.873Z,818.18
2018-07-23T04:23:24.887Z,818.10
2018-07-23T04:24:24.902Z,818.17
2018-07-23T04:25:24.920Z,818.14
2018-07-23T04:26:24.937Z,818.21
2018-07-23T04:27:24.956Z,818.20
2018-07-23T04:28:24.974Z,818.21
2018-07-23T04:29:24.991Z,818.27
2018-07-23T04:30:25.012Z,818.20
2018-07-23T04:31:25.025Z,818.18
2018-07-23T04:32:25.046Z,818.20
2018-07-23T04:33:25.063Z,818.19
2018-07-23T04:34:25.080Z,818.21
2018-07-23T04:35:25.095Z,818.22
2018-07-23T04:36:25.113Z,818.21
2018-07-23T04:37:25.132Z,818.22
2018-07-23T04:38:25.148Z,818.19
2018-07-23T04:39:25.166Z,818.22
2018-07-23T04:40:25.184Z,818.23
2018-07-23T04:41:25.200Z,818.29
2018-07-23T04:42:25.236Z,818.23
2018-07-23T04:43:25.235Z,818.25
2018-07-23T04:44:25.256Z,818.25
2018-07-23T04:45:25.270Z,818.22
2018-07-23T04:46:25.288Z,818.23
2018-07-23T04:47:25.307Z,818.27
2018-07-23T04:48:25.324Z,818.24
2018-07-23T04:49:25.406Z,818.25
2018-07-23T04:50:25.360Z,818.26
2018-07-23T04:51:25.376Z,818.25
2018-07-23T04:52:25.392Z,818.24
2018-07-23T04:53:25.410Z,818.25
2018-07-23T04:54:25.429Z,818.24
2018-07-23T04:55:25.446Z,818.21
2018-07-23T04:56:25.465Z,818.23
2018-07-23T04:57:25.480Z,818.24
2018-07-23T04:58:25.498Z,818.23
2018-07-23T04:59:25.517Z,818.28
2018-07-23T05:00:25.533Z,818.27
2018-07-23T05:01:25.553Z,818.25
2018-07-23T05:02:25.567Z,818.20
2018-07-23T05:03:25.589Z,818.24
2018-07-23T05:04:25.605Z,818.24
2018-07-23T05:05:25.619Z,818.23
2018-07-23T05:06:25.637Z,818.26
2018-07-23T05:07:25.656Z,818.28
2018-07-23T05:08:25.676Z,818.25
2018-07-23T05:09:25.689Z,818.24
2018-07-23T05:10:25.710Z,818.22
2018-07-23T05:11:25.728Z,818.20
2018-07-23T05:12:25.745Z,818.23
2018-07-23T05:13:25.763Z,818.20
2018-07-23T05:14:25.778Z,818.24
2018-07-23T05:15:25.797Z,818.22
2018-07-23T05:16:25.817Z,818.24
2018-07-23T05:17:25.831Z,818.31
2018-07-23T05:18:25.849Z,818.31
2018-07-23T05:19:25.867Z,818.30
2018-07-23T05:20:25.886Z,818.30
2018-07-23T05:21:25.905Z,818.28
2018-07-23T05:22:25.919Z,818.26
2018-07-23T05:23:25.938Z,818.25
2018-07-23T05:24:25.987Z,818.25
2018-07-23T05:25:25.972Z,818.22
2018-07-23T05:26:25.992Z,818.23
2018-07-23T05:27:26.009Z,818.24
2018-07-23T05:28:26.030Z,818.27
2018-07-23T05:29:26.045Z,818.29
2018-07-23T05:30:26.060Z,818.31
2018-07-23T05:31:26.083Z,818.32
2018-07-23T05:32:26.105Z,818.36
2018-07-23T05:33:26.115Z,818.37
2018-07-23T05:34:26.134Z,818.38
2018-07-23T05:35:26.150Z,818.40
2018-07-23T05:36:26.173Z,818.40
2018-07-23T05:37:26.185Z,818.42
2018-07-23T05:38:26.209Z,818.40
2018-07-23T05:39:26.222Z,818.40
2018-07-23T05:40:26.239Z,818.37
2018-07-23T05:41:26.258Z,818.40
2018-07-23T05:42:26.282Z,818.34
2018-07-23T05:43:26.294Z,818.39
2018-07-23T05:44:26.312Z,818.40
2018-07-23T05:45:26.327Z,818.37
2018-07-23T05:46:26.345Z,818.36
2018-07-23T05:47:26.364Z,818.36
2018-07-23T05:48:26.382Z,818.37
2018-07-23T05:49:26.403Z,818.39
2018-07-23T05:50:26.417Z,818.36
2018-07-23T05:51:26.436Z,818.38
2018-07-23T05:52:26.454Z,818.42
2018-07-23T05:53:26.472Z,818.39
2018-07-23T05:54:26.489Z,818.45
2018-07-23T05:55:26.512Z,818.44
2018-07-23T05:56:26.525Z,818.42
2018-07-23T05:57:26.542Z,818.42
2018-07-23T05:58:26.560Z,818.44
2018-07-23T05:59:26.581Z,818.46
2018-07-23T06:00:26.596Z,818.44
2018-07-23T06:01:26.615Z,818.43
2018-07-23T06:02:26.634Z,818.45
2018-07-23T06:03:26.650Z,818.45
2018-07-23T06:04:26.670Z,818.48
2018-07-23T06:05:26.686Z,818.50
2018-07-23T06:06:26.828Z,818.48
2018-07-23T06:07:26.723Z,818.49
2018-07-23T06:08:26.743Z,818.48
2018-07-23T06:09:26.760Z,818.51
2018-07-23T06:10:26.777Z,818.52
2018-07-23T06:11:26.795Z,818.50
2018-07-23T06:12:26.814Z,818.51
2018-07-23T06:13:26.839Z,818.55
2018-07-23T06:14:26.850Z,818.56
2018-07-23T06:15:26.869Z,818.51
2018-07-23T06:16:26.888Z,818.54
2018-07-23T06:17:26.902Z,818.58
2018-07-23T06:18:26.922Z,818.56
2018-07-23T06:19:26.939Z,818.57
2018-07-23T06:20:26.958Z,818.58
2018-07-23T06:21:26.976Z,818.54
2018-07-23T06:22:26.995Z,818.55
2018-07-23T06:23:27.013Z,818.56
2018-07-23T06:24:27.033Z,818.57
2018-07-23T06:25:27.053Z,818.55
2018-07-23T06:26:27.070Z,818.56
2018-07-23T06:27:27.088Z,818.56
2018-07-23T06:28:27.105Z,818.57
2018-07-23T06:29:27.123Z,818.59
2018-07-23T06:30:27.202Z,818.59
2018-07-23T06:31:27.160Z,818.62
2018-07-23T06:32:27.185Z,818.62
2018-07-23T06:33:27.199Z,818.65
2018-07-23T06:34:27.225Z,818.63
2018-07-23T06:35:27.264Z,818.64
2018-07-23T06:36:27.264Z,818.65
2018-07-23T06:37:27.353Z,818.65
2018-07-23T06:38:27.305Z,818.67
2018-07-23T06:39:27.334Z,818.67
2018-07-23T06:40:27.385Z,818.71
2018-07-23T06:41:27.399Z,818.73
2018-07-23T06:42:27.394Z,818.73
2018-07-23T06:43:27.554Z,818.75
2018-07-23T06:44:27.439Z,818.72
2018-07-23T06:45:27.489Z,818.73
2018-07-23T06:46:27.496Z,818.74
2018-07-23T06:47:27.481Z,818.69
2018-07-23T06:48:27.507Z,818.75
2018-07-23T06:49:27.538Z,818.74
2018-07-23T06:50:27.533Z,818.78
2018-07-23T06:51:27.564Z,818.79
2018-07-23T06:52:27.611Z,818.78
2018-07-23T06:53:27.577Z,818.80
2018-07-23T06:54:27.646Z,818.77
2018-07-23T06:55:27.607Z,818.77
2018-07-23T06:56:27.651Z,818.76
2018-07-23T06:57:27.730Z,818.77
2018-07-23T06:58:27.669Z,818.74
2018-07-23T06:59:27.722Z,818.74
2018-07-23T07:00:27.776Z,818.76
2018-07-23T07:01:27.796Z,818.79
2018-07-23T07:02:27.790Z,818.79
2018-07-23T07:03:27.782Z,818.76
2018-07-23T07:04:27.767Z,818.82
2018-07-23T07:05:27.819Z,818.82
2018-07-23T07:06:27.933Z,818.84
2018-07-23T07:07:27.880Z,818.84
2018-07-23T07:08:27.917Z,818.82
2018-07-23T07:09:27.861Z,818.82
2018-07-23T07:10:27.877Z,818.82
2018-07-23T07:11:27.897Z,818.83
2018-07-23T07:12:27.912Z,818.84
2018-07-23T07:13:27.941Z,818.84
2018-07-23T07:14:27.949Z,818.81
2018-07-23T07:15:27.967Z,818.86
2018-07-23T07:16:27.988Z,818.86
2018-07-23T07:17:28.008Z,818.87
2018-07-23T07:18:28.026Z,818.86
2018-07-23T07:19:28.043Z,818.83
2018-07-23T07:20:28.069Z,818.83
2018-07-23T07:21:28.080Z,818.90
2018-07-23T07:22:28.097Z,818.88
2018-07-23T07:23:28.117Z,818.90
2018-07-23T07:24:28.136Z,818.89
2018-07-23T07:25:28.178Z,818.89
2018-07-23T07:26:28.172Z,818.88
2018-07-23T07:27:28.189Z,818.94
2018-07-23T07:28:28.210Z,818.92
2018-07-23T07:29:28.225Z,818.92
2018-07-23T07:30:28.243Z,818.90
2018-07-23T07:31:28.271Z,818.91
2018-07-23T07:32:28.282Z,818.92
2018-07-23T07:33:28.300Z,818.87
2018-07-23T07:34:28.318Z,818.90
2018-07-23T07:35:28.338Z,818.91
2018-07-23T07:36:28.356Z,818.87
2018-07-23T07:37:28.372Z,818.92
2018-07-23T07:38:28.391Z,818.90
2018-07-23T07:39:28.409Z,818.95
2018-07-23T07:40:28.435Z,818.92
2018-07-23T07:41:28.447Z,818.95
2018-07-23T07:42:28.463Z,818.92
2018-07-23T07:43:28.485Z,818.95
2018-07-23T07:44:28.507Z,818.94
2018-07-23T07:45:28.521Z,818.93
2018-07-23T07:46:28.636Z,818.90
2018-07-23T07:47:28.559Z,818.92
2018-07-23T07:48:28.579Z,818.91
2018-07-23T07:49:28.593Z,818.92
2018-07-23T07:50:28.612Z,818.92
2018-07-23T07:51:28.629Z,818.93
2018-07-23T07:52:28.649Z,818.91
2018-07-23T07:53:28.671Z,818.95
2018-07-23T07:54:28.688Z,818.95
2018-07-23T07:55:28.706Z,818.94
2018-07-23T07:56:28.723Z,818.96
2018-07-23T07:57:28.746Z,819.00
2018-07-23T07:58:28.759Z,819.02
2018-07-23T07:59:28.780Z,819.00
2018-07-23T08:00:28.799Z,819.01
2018-07-23T08:01:28.817Z,819.03
2018-07-23T08:02:28.835Z,819.04
2018-07-23T08:03:28.857Z,819.05
2018-07-23T08:04:28.873Z,819.04
2018-07-23T08:05:28.889Z,819.05
2018-07-23T08:06:28.909Z,819.03
2018-07-23T08:07:28.932Z,819.05
2018-07-23T08:08:28.949Z,819.04
2018-07-23T08:09:28.968Z,819.02
2018-07-23T08:10:28.985Z,819.04
2018-07-23T08:11:29.005Z,819.06
2018-07-23T08:12:29.088Z,819.10
2018-07-23T08:13:29.042Z,819.09
2018-07-23T08:14:29.062Z,819.11
2018-07-23T08:15:29.083Z,819.10
2018-07-23T08:16:29.102Z,819.12
2018-07-23T08:17:29.119Z,819.14
2018-07-23T08:18:29.136Z,819.17
2018-07-23T08:19:29.154Z,819.14
2018-07-23T08:20:29.173Z,819.16
2018-07-23T08:21:29.190Z,819.16
2018-07-23T08:22:29.210Z,819.16
2018-07-23T08:23:29.229Z,819.13
2018-07-23T08:24:29.257Z,819.16
2018-07-23T08:25:29.266Z,819.17
2018-07-23T08:26:29.285Z,819.14
2018-07-23T08:27:29.304Z,819.14
2018-07-23T08:28:29.322Z,819.12
2018-07-23T08:29:29.343Z,819.17
2018-07-23T08:30:29.359Z,819.18
2018-07-23T08:31:29.380Z,819.19
2018-07-23T08:32:29.397Z,819.19
2018-07-23T08:33:29.420Z,819.18
2018-07-23T08:34:29.435Z,819.24
2018-07-23T08:35:29.454Z,819.19
2018-07-23T08:36:29.472Z,819.18
2018-07-23T08:37:29.490Z,819.21
2018-07-23T08:38:29.555Z,819.21
2018-07-23T08:39:29.529Z,819.21
2018-07-23T08:40:29.548Z,819.21
2018-07-23T08:41:29.566Z,819.24
2018-07-23T08:42:29.588Z,819.22
2018-07-23T08:43:29.606Z,819.25
2018-07-23T08:44:29.628Z,819.22
2018-07-23T08:45:29.642Z,819.23
2018-07-23T08:46:29.660Z,819.21
2018-07-23T08:47:29.682Z,819.24
2018-07-23T08:48:29.758Z,819.24
2018-07-23T08:49:29.717Z,819.25
2018-07-23T08:50:29.737Z,819.29
2018-07-23T08:51:29.756Z,819.25
2018-07-23T08:52:29.774Z,819.30
2018-07-23T08:53:29.791Z,819.31
2018-07-23T08:54:29.809Z,819.29
2018-07-23T08:55:29.828Z,819.28
2018-07-23T08:56:29.849Z,819.29
2018-07-23T08:57:29.868Z,819.36
2018-07-23T08:58:29.886Z,819.32
2018-07-23T08:59:29.919Z,819.31
2018-07-23T09:00:29.922Z,819.31
2018-07-23T09:01:29.946Z,819.30
2018-07-23T09:02:29.961Z,819.31
2018-07-23T09:03:29.980Z,819.30
2018-07-23T09:04:30.006Z,819.30
2018-07-23T09:05:30.019Z,819.31
2018-07-23T09:06:30.038Z,819.33
2018-07-23T09:07:30.057Z,819.32
2018-07-23T09:08:30.111Z,819.30
2018-07-23T09:09:30.094Z,819.33
2018-07-23T09:10:30.112Z,819.32
2018-07-23T09:11:30.131Z,819.29
2018-07-23T09:12:30.153Z,819.33
2018-07-23T09:13:30.169Z,819.33
2018-07-23T09:14:30.190Z,819.28
2018-07-23T09:15:30.207Z,819.31
2018-07-23T09:16:30.230Z,819.31
2018-07-23T09:17:30.245Z,819.33
2018-07-23T09:18:30.264Z,819.34
2018-07-23T09:19:30.284Z,819.33
2018-07-23T09:20:30.304Z,819.34
2018-07-23T09:21:30.327Z,819.33
2018-07-23T09:22:30.343Z,819.30
2018-07-23T09:23:30.369Z,819.31
2018-07-23T09:24:30.418Z,819.29
2018-07-23T09:25:30.397Z,819.33
2018-07-23T09:26:30.418Z,819.34
2018-07-23T09:27:30.439Z,819.31
2018-07-23T09:28:30.458Z,819.32
2018-07-23T09:29:30.478Z,819.34
2018-07-23T09:30:30.495Z,819.33
2018-07-23T09:31:30.514Z,819.35
2018-07-23T09:32:30.535Z,819.33
2018-07-23T09:33:30.554Z,819.34
2018-07-23T09:34:30.572Z,819.31
2018-07-23T09:35:30.593Z,819.36
2018-07-23T09:36:30.614Z,819.39
2018-07-23T09:37:30.642Z,819.39
2018-07-23T09:38:30.651Z,819.40
2018-07-23T09:39:30.678Z,819.38
2018-07-23T09:40:30.691Z,819.37
2018-07-23T09:41:30.719Z,819.36
2018-07-23T09:42:30.730Z,819.37
2018-07-23T09:43:30.752Z,819.37
2018-07-23T09:44:30.771Z,819.36
2018-07-23T09:45:30.806Z,819.41
2018-07-23T09:46:30.812Z,819.35
2018-07-23T09:47:30.832Z,819.36
2018-07-23T09:48:30.852Z,819.36
2018-07-23T09:49:30.871Z,819.32
2018-07-23T09:50:30.891Z,819.33
2018-07-23T09:51:30.917Z,819.32
2018-07-23T09:52:30.935Z,819.38
2018-07-23T09:53:30.954Z,819.30
2018-07-23T09:54:30.973Z,819.29
2018-07-23T09:55:30.996Z,819.30
2018-07-23T09:56:31.015Z,819.29
2018-07-23T09:57:31.035Z,819.29
2018-07-23T09:58:31.059Z,819.27
2018-07-23T09:59:31.076Z,819.26
2018-07-23T10:00:31.103Z,819.27
2018-07-23T10:01:31.116Z,819.25
2018-07-23T10:02:31.135Z,819.28
2018-07-23T10:03:31.307Z,819.29
2018-07-23T10:04:31.175Z,819.24
2018-07-23T10:05:31.195Z,819.26
2018-07-23T10:06:31.214Z,819.28
2018-07-23T10:07:31.235Z,819.26
2018-07-23T10:08:31.256Z,819.28
2018-07-23T10:09:31.274Z,819.26
2018-07-23T10:10:31.295Z,819.25
2018-07-23T10:11:31.316Z,819.26
2018-07-23T10:12:31.337Z,819.27
2018-07-23T10:13:31.355Z,819.29
2018-07-23T10:14:31.376Z,819.30
2018-07-23T10:15:31.395Z,819.28
2018-07-23T10:16:31.420Z,819.34
2018-07-23T10:17:31.435Z,819.29
2018-07-23T10:18:31.455Z,819.32
2018-07-23T10:19:31.475Z,819.28
2018-07-23T10:20:31.497Z,819.28
2018-07-23T10:21:31.515Z,819.29
2018-07-23T10:22:31.546Z,819.30
2018-07-23T10:23:31.558Z,819.27
2018-07-23T10:24:31.575Z,819.27
2018-07-23T10:25:31.595Z,819.28
2018-07-23T10:26:31.614Z,819.28
2018-07-23T10:27:31.636Z,819.30
2018-07-23T10:28:31.655Z,819.26
2018-07-23T10:29:31.679Z,819.26
2018-07-23T10:30:31.699Z,819.26
2018-07-23T10:31:31.716Z,819.24
2018-07-23T10:32:31.735Z,819.28
2018-07-23T10:33:31.756Z,819.28
2018-07-23T10:34:31.777Z,819.34
2018-07-23T10:35:31.796Z,819.31
2018-07-23T10:36:31.816Z,819.29
2018-07-23T10:37:31.834Z,819.30
2018-07-23T10:38:31.862Z,819.25
2018-07-23T10:39:31.875Z,819.34
2018-07-23T10:40:31.898Z,819.29
2018-07-23T10:41:31.913Z,819.26
2018-07-23T10:42:31.933Z,819.26
2018-07-23T10:43:31.953Z,819.31
2018-07-23T10:44:31.975Z,819.27
2018-07-23T10:45:31.994Z,819.25
2018-07-23T10:46:32.016Z,819.29
2018-07-23T10:47:32.034Z,819.27
2018-07-23T10:48:32.057Z,819.29
2018-07-23T10:49:32.074Z,819.27
2018-07-23T10:50:32.096Z,819.28
2018-07-23T10:51:32.117Z,819.27
2018-07-23T10:52:32.137Z,819.28
2018-07-23T10:53:32.154Z,819.30
2018-07-23T10:54:32.176Z,819.30
2018-07-23T10:55:32.198Z,819.32
2018-07-23T10:56:32.218Z,819.35
2018-07-23T10:57:32.237Z,819.34
2018-07-23T10:58:32.257Z,819.33
2018-07-23T10:59:32.282Z,819.35
2018-07-23T11:00:32.304Z,819.30
2018-07-23T11:01:32.322Z,819.31
2018-07-23T11:02:32.339Z,819.33
2018-07-23T11:03:32.360Z,819.30
2018-07-23T11:04:32.383Z,819.28
2018-07-23T11:05:32.402Z,819.31
2018-07-23T11:06:32.423Z,819.28
2018-07-23T11:07:32.443Z,819.25
2018-07-23T11:08:32.466Z,819.26
2018-07-23T11:09:32.485Z,819.32
2018-07-23T11:10:32.505Z,819.32
2018-07-23T11:11:32.525Z,819.31
2018-07-23T11:12:32.548Z,819.35
2018-07-23T11:13:32.568Z,819.36
2018-07-23T11:14:32.592Z,819.36
2018-07-23T11:15:32.612Z,819.34
2018-07-23T11:16:32.632Z,819.33
2018-07-23T11:17:32.652Z,819.31
2018-07-23T11:18:32.672Z,819.34
2018-07-23T11:19:32.694Z,819.35
2018-07-23T11:20:32.715Z,819.37
2018-07-23T11:21:32.736Z,819.32
2018-07-23T11:22:32.756Z,819.34
2018-07-23T11:23:32.785Z,819.35
2018-07-23T11:24:32.803Z,819.37
2018-07-23T11:25:40.503Z,819.36
2018-07-23T11:26:32.850Z,819.31
2018-07-23T11:27:32.863Z,819.36
2018-07-23T11:28:32.886Z,819.33
2018-07-23T11:29:32.954Z,819.35
2018-07-23T11:30:32.924Z,819.35
2018-07-23T11:31:32.948Z,819.31
2018-07-23T11:32:32.979Z,819.31
2018-07-23T11:33:32.988Z,819.32
2018-07-23T11:34:33.008Z,819.30
2018-07-23T11:35:33.029Z,819.32
2018-07-23T11:36:33.118Z,819.32
2018-07-23T11:37:33.072Z,819.31
2018-07-23T11:38:33.093Z,819.33
2018-07-23T11:39:33.180Z,819.34
2018-07-23T11:40:33.135Z,819.38
2018-07-23T11:41:33.216Z,819.29
2018-07-23T11:42:33.177Z,819.37
2018-07-23T11:43:33.199Z,819.34
2018-07-23T11:44:33.218Z,819.29
2018-07-23T11:45:33.238Z,819.38
2018-07-23T11:46:33.261Z,819.35
2018-07-23T11:47:33.283Z,819.35
2018-07-23T11:48:33.303Z,819.33
2018-07-23T11:49:33.324Z,819.33
2018-07-23T11:50:33.344Z,819.31
2018-07-23T11:51:33.366Z,819.29
2018-07-23T11:52:33.387Z,819.33
2018-07-23T11:53:33.550Z,819.32
2018-07-23T11:54:33.432Z,819.32
2018-07-23T11:55:33.449Z,819.27
2018-07-23T11:56:33.496Z,819.32
2018-07-23T11:57:33.490Z,819.28
2018-07-23T11:58:33.512Z,819.34
2018-07-23T11:59:33.537Z,819.29
2018-07-23T12:00:33.555Z,819.33
2018-07-23T12:01:33.573Z,819.34
2018-07-23T12:02:33.600Z,819.33
2018-07-23T12:03:33.615Z,819.31
2018-07-23T12:04:33.709Z,819.31
2018-07-23T12:05:33.659Z,819.27
2018-07-23T12:06:33.682Z,819.27
2018-07-23T12:07:33.700Z,819.23
2018-07-23T12:08:33.724Z,819.21
2018-07-23T12:09:33.741Z,819.24
2018-07-23T12:10:33.766Z,819.29
2018-07-23T12:11:33.786Z,819.30
2018-07-23T12:12:33.809Z,819.22
2018-07-23T12:13:33.832Z,819.20
2018-07-23T12:14:33.852Z,819.23
2018-07-23T12:15:33.880Z,819.25
2018-07-23T12:16:33.896Z,819.24
2018-07-23T12:17:33.935Z,819.20
2018-07-23T12:18:33.939Z,819.27
2018-07-23T12:19:33.959Z,819.22
2018-07-23T12:20:33.981Z,819.20
2018-07-23T12:21:34.001Z,819.18
2018-07-23T12:22:34.026Z,819.22
2018-07-23T12:23:34.050Z,819.20
2018-07-23T12:24:34.069Z,819.21
2018-07-23T12:25:34.090Z,819.19
2018-07-23T12:26:34.114Z,819.22
2018-07-23T12:27:34.132Z,819.21
2018-07-23T12:28:34.157Z,819.11